createdAt,value
2022-11-25T00:02:55.900Z,101010.56
2022-11-25T00:05:58.659Z,101007.84
2022-11-25T00:09:05.635Z,101006.94
2022-11-25T00:12:08.469Z,101013.03
2022-11-25T00:15:11.192Z,101005.22
2022-11-25T00:18:13.797Z,101006.22
2022-11-25T00:21:18.782Z,100999.03
2022-11-25T00:24:22.787Z,101009.66
2022-11-25T00:27:25.399Z,100998.28
2022-11-25T00:30:28.050Z,100993.03
2022-11-25T00:33:30.660Z,100994.81
2022-11-25T00:36:35.217Z,100997.28
2022-11-25T00:39:39.160Z,101003.53
2022-11-25T00:42:59.245Z,101007.84
2022-11-25T00:46:01.915Z,101001.75
2022-11-25T00:49:04.589Z,101004.41
2022-11-25T00:52:07.834Z,101008.84
2022-11-25T00:55:11.852Z,101007.09
2022-11-25T00:58:14.461Z,101010.63
2022-11-25T01:01:17.113Z,101009.88
2022-11-25T01:04:19.786Z,101000.31
2022-11-25T01:07:22.485Z,100997.44
2022-11-25T01:10:26.498Z,100991.19
2022-11-25T01:13:29.183Z,100991.25
2022-11-25T01:16:32.051Z,100987.75
2022-11-25T01:19:38.246Z,100980.78
2022-11-25T01:22:40.883Z,100988.72
2022-11-25T01:25:44.831Z,100985.19
2022-11-25T01:28:48.402Z,100971.22
2022-11-25T01:31:51.580Z,100967.69
2022-11-25T01:34:54.260Z,100972.06
2022-11-25T01:37:56.918Z,100999.41
2022-11-25T01:41:01.621Z,101001.22
2022-11-25T01:44:06.512Z,100984.50
2022-11-25T01:47:16.006Z,100986.22
2022-11-25T01:50:22.361Z,100985.50
2022-11-25T01:53:25.161Z,100969.00
2022-11-25T01:56:33.048Z,100984.69
2022-11-25T01:59:40.503Z,100972.34
2022-11-25T02:02:43.757Z,100965.44
2022-11-25T02:05:52.503Z,100958.38
2022-11-25T02:08:59.430Z,100960.06
2022-11-25T02:12:04.588Z,100954.91
2022-11-25T02:15:08.797Z,100954.84
2022-11-25T02:18:11.463Z,100952.41
2022-11-25T02:21:16.502Z,100957.41
2022-11-25T02:24:25.521Z,100964.31
2022-11-25T02:27:30.024Z,100966.03
2022-11-25T02:30:32.768Z,100967.81
2022-11-25T02:33:35.422Z,100965.88
2022-11-25T02:36:38.391Z,100969.41
2022-11-25T02:39:41.100Z,100962.31
2022-11-25T02:42:45.656Z,100969.41
2022-11-25T02:45:57.424Z,100966.56
2022-11-25T02:49:08.958Z,100964.16
2022-11-25T02:52:12.170Z,100961.31
2022-11-25T02:55:14.803Z,100962.38
2022-11-25T02:58:19.546Z,100964.88
2022-11-25T03:01:22.777Z,100965.81
2022-11-25T03:04:25.419Z,100980.78
2022-11-25T03:07:28.130Z,100989.81
2022-11-25T03:10:31.343Z,100981.00
2022-11-25T03:13:35.467Z,100992.81
2022-11-25T03:16:38.241Z,100992.63
2022-11-25T03:19:41.058Z,100994.75
2022-11-25T03:22:44.097Z,100995.16
2022-11-25T03:25:46.725Z,100998.69
2022-11-25T03:28:50.654Z,100997.03
2022-11-25T03:31:53.351Z,100999.59
2022-11-25T03:34:56.020Z,100991.84
2022-11-25T03:37:58.628Z,100985.72
2022-11-25T03:41:01.380Z,100979.50
2022-11-25T03:44:05.417Z,100985.78
2022-11-25T03:47:08.061Z,100986.00
2022-11-25T03:50:13.608Z,100987.75
2022-11-25T03:53:16.228Z,100992.19
2022-11-25T03:56:18.827Z,100988.00
2022-11-25T03:59:22.857Z,100987.09
2022-11-25T04:02:25.588Z,100987.22
2022-11-25T04:05:28.263Z,100993.44
2022-11-25T04:08:30.894Z,100985.59
2022-11-25T04:11:47.630Z,100992.47
2022-11-25T04:14:51.645Z,100987.34
2022-11-25T04:17:54.316Z,100983.63
2022-11-25T04:20:56.997Z,100988.13
2022-11-25T04:23:59.631Z,100991.66
2022-11-25T04:27:02.254Z,100991.66
2022-11-25T04:30:07.718Z,100994.41
2022-11-25T04:33:10.347Z,100989.06
2022-11-25T04:36:12.945Z,100978.09
2022-11-25T04:39:15.571Z,100969.97
2022-11-25T04:42:33.144Z,100968.97
2022-11-25T04:45:59.024Z,100960.94
2022-11-25T04:48:59.714Z,100974.25
2022-11-25T04:52:02.379Z,100982.97
2022-11-25T04:55:06.797Z,100983.75
2022-11-25T04:58:10.904Z,100983.88
2022-11-25T05:01:14.006Z,100989.88
2022-11-25T05:04:16.658Z,100989.19
2022-11-25T05:07:21.944Z,100994.47
2022-11-25T05:10:24.784Z,100998.00
2022-11-25T05:13:27.715Z,101003.97
2022-11-25T05:16:31.786Z,100996.03
2022-11-25T05:19:36.267Z,100995.41
2022-11-25T05:22:38.984Z,100993.53
2022-11-25T05:25:41.593Z,100996.41
2022-11-25T05:28:44.259Z,100997.28
2022-11-25T05:31:48.246Z,101005.00
2022-11-25T05:34:50.888Z,100993.66
2022-11-25T05:37:53.491Z,100997.94
2022-11-25T05:41:02.233Z,100999.50
2022-11-25T05:44:05.304Z,101000.47
2022-11-25T05:47:10.019Z,100997.84
2022-11-25T05:50:12.685Z,100997.94
2022-11-25T05:53:17.249Z,100992.78
2022-11-25T05:56:19.844Z,100989.19
2022-11-25T05:59:22.477Z,100977.97
2022-11-25T06:02:26.560Z,100983.94
2022-11-25T06:05:29.233Z,100978.63
2022-11-25T06:08:31.920Z,100974.16
2022-11-25T06:11:34.767Z,100976.75
2022-11-25T06:14:37.586Z,100977.53
2022-11-25T06:17:41.861Z,100970.31
2022-11-25T06:20:45.702Z,100973.00
2022-11-25T06:23:48.628Z,100966.84
2022-11-25T06:26:51.239Z,100965.94
2022-11-25T06:29:53.850Z,100956.25
2022-11-25T06:32:57.828Z,100969.41
2022-11-25T06:36:00.523Z,100966.63
2022-11-25T06:39:03.168Z,100967.53
2022-11-25T06:42:05.943Z,100971.84
2022-11-25T06:45:09.838Z,100980.53
2022-11-25T06:48:13.809Z,100982.28
2022-11-25T06:51:17.297Z,100997.41
2022-11-25T06:54:19.910Z,101000.84
2022-11-25T06:57:22.565Z,101006.22
2022-11-25T07:00:25.344Z,101004.44
2022-11-25T07:03:29.679Z,101006.13
2022-11-25T07:06:33.451Z,101006.13
2022-11-25T07:09:36.085Z,101004.09
2022-11-25T07:12:38.707Z,101008.63
2022-11-25T07:15:41.396Z,101006.78
2022-11-25T07:18:45.555Z,101005.09
2022-11-25T07:21:48.318Z,101014.59
2022-11-25T07:24:50.963Z,101012.88
2022-11-25T07:27:53.554Z,101018.44
2022-11-25T07:34:21.761Z,101028.69
2022-11-25T07:37:24.391Z,101047.09
2022-11-25T07:40:27.066Z,101049.22
2022-11-25T07:43:29.753Z,101055.06
2022-11-25T07:46:35.569Z,101055.84
2022-11-25T07:49:39.860Z,101048.06
2022-11-25T07:52:42.509Z,101043.44
2022-11-25T07:55:46.215Z,101047.78
2022-11-25T07:58:49.634Z,101047.84
2022-11-25T08:01:53.485Z,101045.38
2022-11-25T08:04:57.509Z,101040.84
2022-11-25T08:08:00.164Z,101026.81
2022-11-25T08:11:06.590Z,101033.81
2022-11-25T08:14:10.226Z,101021.72
2022-11-25T08:17:12.885Z,101053.06
2022-11-25T08:20:17.019Z,101053.06
2022-11-25T08:23:19.676Z,101047.84
2022-11-25T08:26:25.657Z,101055.47
2022-11-25T08:29:28.383Z,101052.34
2022-11-25T08:32:30.987Z,101058.97
2022-11-25T08:35:37.852Z,101058.84
2022-11-25T08:38:42.067Z,101052.50
2022-11-25T08:41:44.691Z,101056.91
2022-11-25T08:44:47.364Z,101052.22
2022-11-25T08:47:50.024Z,101050.63
2022-11-25T08:50:55.536Z,101055.63
2022-11-25T08:53:58.630Z,101057.22
2022-11-25T08:57:01.455Z,101057.56
2022-11-25T09:00:05.460Z,101063.31
2022-11-25T09:03:08.335Z,101060.47
2022-11-25T09:06:13.384Z,101058.94
2022-11-25T09:09:16.171Z,101058.75
2022-11-25T09:12:18.843Z,101060.81
2022-11-25T09:15:21.541Z,101060.72
2022-11-25T09:18:26.144Z,101059.75
2022-11-25T09:21:30.106Z,101060.16
2022-11-25T09:24:32.721Z,101059.75
2022-11-25T09:27:35.322Z,101078.78
2022-11-25T09:30:38.298Z,101073.50
2022-11-25T09:33:40.905Z,101073.28
2022-11-25T09:36:46.212Z,101074.09
2022-11-25T09:39:50.680Z,101078.47
2022-11-25T09:43:17.282Z,101082.34
2022-11-25T09:46:46.007Z,101083.75
2022-11-25T09:50:04.035Z,101078.56
2022-11-25T09:53:18.253Z,101088.28
2022-11-25T09:56:29.533Z,101090.34
2022-11-25T09:59:40.417Z,101093.44
2022-11-25T10:02:48.923Z,101096.78
2022-11-25T10:06:03.129Z,101090.03
2022-11-25T10:09:15.100Z,101091.75
2022-11-25T10:12:25.888Z,101096.84
2022-11-25T10:15:34.396Z,101099.28
2022-11-25T10:18:43.532Z,101091.50
2022-11-25T10:21:47.160Z,101099.53
2022-11-25T10:24:53.933Z,101103.75
2022-11-25T10:28:00.204Z,101101.03
2022-11-25T10:31:07.436Z,101108.13
2022-11-25T10:34:16.988Z,101098.59
2022-11-25T10:37:27.662Z,101104.72
2022-11-25T10:40:31.822Z,101103.69
2022-11-25T10:43:35.120Z,101104.81
2022-11-25T10:47:12.441Z,101100.88
2022-11-25T10:50:17.137Z,101100.88
2022-11-25T10:53:25.347Z,101110.94
2022-11-25T10:56:29.339Z,101103.78
2022-11-25T10:59:34.179Z,101103.75
2022-11-25T11:02:40.438Z,101107.19
2022-11-25T11:05:48.735Z,101105.72
2022-11-25T11:08:51.393Z,101102.72
2022-11-25T11:11:55.407Z,101110.16
2022-11-25T11:15:19.580Z,101110.66
2022-11-25T11:18:26.582Z,101117.91
2022-11-25T11:21:34.464Z,101112.53
2022-11-25T11:24:37.924Z,101115.16
2022-11-25T11:27:42.211Z,101122.88
2022-11-25T11:30:56.481Z,101123.44
2022-11-25T11:34:05.231Z,101129.53
2022-11-25T11:37:22.980Z,101119.63
2022-11-25T11:40:33.605Z,101123.00
2022-11-25T11:43:50.286Z,101125.72
2022-11-25T11:47:14.512Z,101117.63
2022-11-25T11:50:27.318Z,101120.59
2022-11-25T11:53:36.771Z,101134.50
2022-11-25T11:56:42.955Z,101139.53
2022-11-25T11:59:53.649Z,101148.31
2022-11-25T12:03:05.140Z,101141.19
2022-11-25T12:06:11.556Z,101136.06
2022-11-25T12:09:20.449Z,101146.66
2022-11-25T12:12:33.355Z,101147.03
2022-11-25T12:15:46.340Z,101148.44
2022-11-25T12:18:54.237Z,101139.41
2022-11-25T12:22:05.262Z,101139.53
2022-11-25T12:25:15.300Z,101127.16
2022-11-25T12:28:22.133Z,101135.13
2022-11-25T12:31:30.339Z,101137.81
2022-11-25T12:34:40.943Z,101139.53
2022-11-25T12:37:48.042Z,101138.56
2022-11-25T12:40:58.044Z,101145.56
2022-11-25T12:44:07.816Z,101142.09
2022-11-25T12:47:12.749Z,101153.53
2022-11-25T12:50:18.036Z,101149.91
2022-11-25T12:53:30.025Z,101143.66
2022-11-25T12:56:46.855Z,101151.72
2022-11-25T13:00:39.294Z,101148.19
2022-11-25T13:03:51.026Z,101146.19
2022-11-25T13:07:17.902Z,101158.19
2022-11-25T13:10:45.312Z,101169.19
2022-11-25T13:13:53.547Z,101162.94
2022-11-25T13:16:58.314Z,101157.47
2022-11-25T13:20:33.064Z,101155.53
2022-11-25T13:23:58.464Z,101158.91
2022-11-25T13:27:02.373Z,101170.41
2022-11-25T13:30:05.799Z,101170.41
2022-11-25T13:33:44.438Z,101175.59
2022-11-25T13:36:50.784Z,101181.84
2022-11-25T13:40:32.778Z,101188.72
2022-11-25T13:43:35.407Z,101189.69
2022-11-25T13:46:40.999Z,101197.69
2022-11-25T13:49:53.296Z,101195.09
2022-11-25T13:53:01.523Z,101194.22
2022-11-25T13:56:15.797Z,101195.88
2022-11-25T13:59:37.353Z,101202.06
2022-11-25T14:02:49.307Z,101205.72
2022-11-25T14:06:05.226Z,101204.75
2022-11-25T14:09:21.233Z,101205.66
2022-11-25T14:12:51.027Z,101205.72
2022-11-25T14:16:09.469Z,101213.56
2022-11-25T14:19:55.346Z,101209.81
2022-11-25T14:23:35.875Z,101222.25
2022-11-25T14:26:56.166Z,101215.13
2022-11-25T14:30:02.346Z,101220.38
2022-11-25T14:33:09.269Z,101228.28
2022-11-25T14:36:16.167Z,101235.22
2022-11-25T14:39:25.805Z,101236.88
2022-11-25T14:42:36.118Z,101251.13
2022-11-25T14:45:39.022Z,101247.56
2022-11-25T14:48:42.247Z,101253.66
2022-11-25T14:51:48.584Z,101258.19
2022-11-25T14:54:53.087Z,101267.81
2022-11-25T14:57:57.282Z,101261.59
2022-11-25T15:01:02.956Z,101264.19
2022-11-25T15:04:08.372Z,101268.59
2022-11-25T15:07:19.802Z,101269.34
2022-11-25T15:10:42.445Z,101278.22
2022-11-25T15:13:48.778Z,101271.94
2022-11-25T15:16:51.853Z,101268.63
2022-11-25T15:19:56.951Z,101271.25
2022-11-25T15:22:59.591Z,101281.03
2022-11-25T15:26:03.757Z,101288.06
2022-11-25T15:29:13.509Z,101287.13
2022-11-25T15:32:18.890Z,101284.47
2022-11-25T15:35:23.956Z,101291.44
2022-11-25T15:38:38.991Z,101298.56
2022-11-25T15:41:43.504Z,101300.31
2022-11-25T15:44:52.025Z,101310.78
2022-11-25T15:47:54.777Z,101314.34
2022-11-25T15:51:03.496Z,101308.16
2022-11-25T15:54:15.125Z,101305.44
2022-11-25T15:57:20.091Z,101309.06
2022-11-25T16:00:25.212Z,101306.31
2022-11-25T16:03:27.859Z,101311.59
2022-11-25T16:06:30.979Z,101320.41
2022-11-25T16:09:33.795Z,101323.06
2022-11-25T16:12:36.458Z,101330.13
2022-11-25T16:15:46.899Z,101332.72
2022-11-25T16:19:12.450Z,101337.91
2022-11-25T16:22:18.052Z,101340.56
2022-11-25T16:25:20.808Z,101348.50
2022-11-25T16:28:24.532Z,101349.34
2022-11-25T16:31:28.696Z,101352.91
2022-11-25T16:34:31.434Z,101363.56
2022-11-25T16:37:34.116Z,101360.03
2022-11-25T16:40:37.959Z,101372.34
2022-11-25T16:43:40.600Z,101371.44
2022-11-25T16:46:44.581Z,101379.31
2022-11-25T16:49:47.470Z,101385.53
2022-11-25T16:52:50.669Z,101387.28
2022-11-25T16:55:53.320Z,101384.69
2022-11-25T16:58:56.659Z,101389.81
2022-11-25T17:02:02.402Z,101399.50
2022-11-25T17:05:18.119Z,101401.16
2022-11-25T17:08:20.777Z,101401.22
2022-11-25T17:11:29.314Z,101397.66
2022-11-25T17:14:34.596Z,101401.16
2022-11-25T17:17:38.708Z,101415.25
2022-11-25T17:20:41.471Z,101414.28
2022-11-25T17:23:44.620Z,101404.63
2022-11-25T17:26:49.724Z,101409.00
2022-11-25T17:29:53.204Z,101417.88
2022-11-25T17:33:01.896Z,101415.22
2022-11-25T17:36:04.948Z,101428.38
2022-11-25T17:39:07.625Z,101426.56
2022-11-25T17:42:14.529Z,101419.44
2022-11-25T17:45:19.600Z,101430.94
2022-11-25T17:48:23.559Z,101437.16
2022-11-25T17:51:26.206Z,101444.16
2022-11-25T17:54:28.874Z,101448.47
2022-11-25T17:57:31.511Z,101442.28
2022-11-25T18:00:35.231Z,101447.53
2022-11-25T18:03:39.258Z,101449.31
2022-11-25T18:06:41.900Z,101458.13
2022-11-25T18:09:45.139Z,101453.66
2022-11-25T18:12:50.710Z,101466.94
2022-11-25T18:15:53.612Z,101463.38
2022-11-25T18:18:57.874Z,101459.06
2022-11-25T18:22:02.180Z,101467.84
2022-11-25T18:25:08.217Z,101466.06
2022-11-25T18:28:17.636Z,101477.47
2022-11-25T18:31:20.301Z,101481.09
2022-11-25T18:34:25.063Z,101481.03
2022-11-25T18:37:27.709Z,101480.94
2022-11-25T18:40:30.974Z,101493.31
2022-11-25T18:43:37.412Z,101491.38
2022-11-25T18:46:40.674Z,101501.16
2022-11-25T18:49:44.648Z,101497.59
2022-11-25T18:52:47.687Z,101503.75
2022-11-25T18:55:51.087Z,101504.75
2022-11-25T18:58:53.855Z,101509.97
2022-11-25T19:01:56.609Z,101512.25
2022-11-25T19:05:00.754Z,101519.03
2022-11-25T19:08:03.358Z,101517.06
2022-11-25T19:11:07.321Z,101535.59
2022-11-25T19:14:13.537Z,101524.13
2022-11-25T19:17:20.897Z,101532.25
2022-11-25T19:20:25.867Z,101544.59
2022-11-25T19:23:29.034Z,101531.34
2022-11-25T19:26:41.122Z,101543.94
2022-11-25T19:29:44.938Z,101548.22
2022-11-25T19:32:49.081Z,101548.22
2022-11-25T19:35:53.541Z,101549.06
2022-11-25T19:38:56.237Z,101560.66
2022-11-25T19:41:58.856Z,101558.81
2022-11-25T19:45:03.363Z,101559.75
2022-11-25T19:48:08.728Z,101577.22
2022-11-25T19:51:12.796Z,101579.78
2022-11-25T19:54:17.205Z,101575.47
2022-11-25T19:57:22.221Z,101584.38
2022-11-25T20:00:25.901Z,101586.22
2022-11-25T20:03:31.116Z,101596.72
2022-11-25T20:06:35.272Z,101595.72
2022-11-25T20:09:37.898Z,101599.34
2022-11-25T20:12:40.742Z,101599.25
2022-11-25T20:15:45.402Z,101606.47
2022-11-25T20:18:48.495Z,101625.72
2022-11-25T20:21:52.510Z,101625.63
2022-11-25T20:24:56.467Z,101620.38
2022-11-25T20:27:59.080Z,101623.22
2022-11-25T20:31:01.739Z,101625.31
2022-11-25T20:34:04.362Z,101638.47
2022-11-25T20:37:09.924Z,101647.97
2022-11-25T20:40:17.481Z,101652.19
2022-11-25T20:43:28.719Z,101648.53
2022-11-25T20:46:31.395Z,101659.22
2022-11-25T20:49:34.074Z,101658.28
2022-11-25T20:52:38.924Z,101661.84
2022-11-25T20:55:42.079Z,101667.13
2022-11-25T20:58:45.048Z,101675.91
2022-11-25T21:01:47.798Z,101671.69
2022-11-25T21:04:50.485Z,101679.56
2022-11-25T21:07:55.183Z,101675.13
2022-11-25T21:10:59.565Z,101682.06
2022-11-25T21:14:02.179Z,101680.34
2022-11-25T21:17:04.779Z,101679.56
2022-11-25T21:20:09.166Z,101694.53
2022-11-25T21:23:19.915Z,101701.38
2022-11-25T21:26:26.088Z,101712.84
2022-11-25T21:29:29.861Z,101703.25
2022-11-25T21:32:32.506Z,101724.31
2022-11-25T21:35:37.354Z,101722.50
2022-11-25T21:38:41.356Z,101725.97
2022-11-25T21:41:44.126Z,101730.31
2022-11-25T21:44:47.796Z,101732.91
2022-11-25T21:47:50.416Z,101734.56
2022-11-25T21:50:53.803Z,101742.50
2022-11-25T21:53:57.836Z,101736.19
2022-11-25T21:57:00.596Z,101738.06
2022-11-25T22:00:03.337Z,101752.09
2022-11-25T22:03:11.488Z,101752.09
2022-11-25T22:06:20.759Z,101759.22
2022-11-25T22:09:26.627Z,101761.09
2022-11-25T22:12:34.300Z,101766.25
2022-11-25T22:15:39.476Z,101761.81
2022-11-25T22:18:42.767Z,101764.34
2022-11-25T22:21:45.429Z,101766.94
2022-11-25T22:24:49.475Z,101772.81
2022-11-25T22:27:52.500Z,101770.78
2022-11-25T22:30:57.520Z,101773.53
2022-11-25T22:34:00.156Z,101765.69
2022-11-25T22:37:02.773Z,101771.78
2022-11-25T22:40:08.289Z,101779.94
2022-11-25T22:43:17.771Z,101783.41
2022-11-25T22:46:20.544Z,101784.28
2022-11-25T22:49:35.948Z,101787.88
2022-11-25T22:52:38.834Z,101793.38
2022-11-25T22:55:43.011Z,101793.44
2022-11-25T22:58:46.303Z,101794.41
2022-11-25T23:01:49.237Z,101805.81
2022-11-25T23:04:54.903Z,101804.16
2022-11-25T23:07:57.741Z,101804.25
2022-11-25T23:11:01.878Z,101804.34
2022-11-25T23:14:04.508Z,101815.06
2022-11-25T23:17:13.329Z,101814.16
2022-11-25T23:20:19.266Z,101808.06
2022-11-25T23:23:24.324Z,101815.28
2022-11-25T23:26:33.632Z,101831.13
2022-11-25T23:29:37.630Z,101832.13
2022-11-25T23:32:40.233Z,101840.03
2022-11-25T23:35:42.880Z,101837.44
2022-11-25T23:38:48.045Z,101834.69
2022-11-25T23:41:52.682Z,101842.63
2022-11-25T23:44:55.284Z,101841.97
2022-11-25T23:47:58.248Z,101853.41
2022-11-25T23:51:01.421Z,101861.47
2022-11-25T23:54:04.177Z,101866.72
2022-11-25T23:57:14.339Z,101872.00
